aviador You're here:

FAJB Decoded Metar

in _UNIDENTIFIED
Report Time2018-02-20 13:00:00
UTC Time2018-02-20 13:51:52
Flight Rules unknown UNKNOWN
Wind070° at 01 kt
W.Rank070° ranks 28
Current wind is below 070° avg. (2.3)
VisibilityN/A
Phenomena:N/A
Clouds:N/A
Expected CloudBase > 2,800 ft AGL from Temp-Dew spread
CeilingNone
Temp25°C (ISA +21)
Dew Point18°C (65% RH)
QNH1018 hPa
Density Alt7,815 ft
Elevation5,334 ft
Report Wrong Elevation
Raw Report
FAJB 201300Z AUTO 07001KT //// // ////// 25/18 Q1018=

Extra information for FAJB:More info

Metar Taf Metar & Taf Last 4 Metars F.Rules Stats Wind Profile Meteogram Temp Stats Metar ALERT Operation Metar Decoded Social comments